Time;durP1;ratioP1;P1;durP2;ratioP2;P2;SDS_P1;SDS_P2;PMS_P1;PMS_P2;Temp;Humidity;BMP_temperature;BMP_pressure;BME280_temperature;BME280_humidity;BME280_pressure;Samples;Min_cycle;Max_cycle;Signal;HPM_P1;HPM_P2
2022/12/31 00:00:17;;;;;;;;;;;;;;;;;;1039592;28;2196;-54
2022/12/31 00:01:09;;;;;;;;;;;;;;;;;;1038313;28;4371;-55
2022/12/31 00:01:39;;;;;;;;;;;;;;;;;;1041839;28;2431;-56
2022/12/31 00:02:09;;;;;;;;;;;;;;;;;;1039778;28;3898;-55
2022/12/31 00:02:40;;;;;;;;;;;;;;;;;;1040120;28;2065;-54
2022/12/31 00:03:10;;;;;;;;;;;;;;;;;;1040296;28;3858;-55
2022/12/31 00:03:41;;;;;;;;;;;;;;;;;;1039617;28;3987;-50
2022/12/31 00:04:11;;;;;;;;;;;;;;;;;;1040618;28;2625;-51
2022/12/31 00:04:41;;;;;;;;;;;;;;;;;;1040055;28;4371;-55
2022/12/31 00:05:13;;;;;;;;;;;;;;;;;;1040080;28;2385;-58
2022/12/31 00:05:43;;;;;;;;;;;;;;;;;;1040299;28;3971;-52
2022/12/31 00:06:19;;;;;;;;;;;;;;;;;;1041011;28;2700;-53
2022/12/31 00:06:50;;;;;;;;;;;;;;;;;;1039279;28;4170;-58
2022/12/31 00:07:20;;;;;;;;;;;;;;;;;;1038494;28;2157;-54
2022/12/31 00:07:50;;;;;;;;;;;;;;;;;;1039464;28;4063;-56
2022/12/31 00:08:20;;;;;;;;;;;;;;;;;;1039676;28;3170;-53
2022/12/31 00:08:52;;;;;;;;;;;;;;;;;;1040297;28;4263;-54
2022/12/31 00:09:22;;;;;;;;;;;;;;;;;;1039372;28;2736;-54
2022/12/31 00:09:52;;;;;;;;;;;;;;;;;;1038250;28;3935;-55
2022/12/31 00:10:23;;;;;;;;;;;;;;;;;;1039633;28;2179;-56
2022/12/31 00:11:00;;;;;;;;;;;;;;;;;;1041068;28;4031;-52
2022/12/31 00:11:30;;;;;;;;;;;;;;;;;;1039891;28;2810;-55
2022/12/31 00:12:00;;;;;;;;;;;;;;;;;;1039639;28;4057;-55
2022/12/31 00:12:30;;;;;;;;;;;;;;;;;;1041473;28;2734;-53
2022/12/31 00:13:14;;;;;;;;;;;;;;;;;;1041543;28;3781;-53
2022/12/31 00:13:52;;;;;;;;;;;;;;;;;;1048457;28;3806;-52
2022/12/31 00:14:22;;;;;;;;;;;;;;;;;;1049245;28;2675;-55
2022/12/31 00:14:52;;;;;;;;;;;;;;;;;;1047899;28;3931;-56
2022/12/31 00:15:23;;;;;;;;;;;;;;;;;;1049704;28;2286;-53
2022/12/31 00:15:53;;;;;;;;;;;;;;;;;;1045710;28;3939;-57
2022/12/31 00:16:24;;;;;;;;;;;;;;;;;;1048533;28;2284;-53
2022/12/31 00:16:55;;;;;;;;;;;;;;;;;;1048216;28;3826;-51
2022/12/31 00:17:25;;;;;;;;;;;;;;;;;;1047084;28;3199;-57
2022/12/31 00:17:55;;;;;;;;;;;;;;;;;;1045888;28;3947;-54
2022/12/31 00:18:25;;;;;;;;;;;;;;;;;;1049499;28;2904;-54
2022/12/31 00:19:00;;;;;;;;;;;;;;;;;;1048290;28;4274;-55
2022/12/31 00:19:30;;;;;;;;;;;;;;;;;;1046932;28;2863;-55
2022/12/31 00:20:00;;;;;;;;;;;;;;;;;;1048469;28;4234;-54
2022/12/31 00:20:30;;;;;;;;;;;;;;;;;;1046667;28;2522;-51
2022/12/31 00:21:05;;;;;;;;;;;;;;;;;;1046717;28;3943;-53
2022/12/31 00:21:35;;;;;;;;;;;;;;;;;;1046408;28;2922;-55
2022/12/31 00:22:06;;;;;;;;;;;;;;;;;;1049058;28;4132;-50
2022/12/31 00:22:36;;;;;;;;;;;;;;;;;;1050043;28;3109;-51
2022/12/31 00:23:07;;;;;;;;;;;;;;;;;;1049188;28;3911;-49
2022/12/31 00:23:37;;;;;;;;;;;;;;;;;;1048341;28;2412;-51
2022/12/31 00:24:09;;;;;;;;;;;;;;;;;;1049675;28;3712;-52
2022/12/31 00:24:40;;;;;;;;;;;;;;;;;;1048071;28;2048;-52
2022/12/31 00:25:10;;;;;;;;;;;;;;;;;;1047487;28;3986;-56
2022/12/31 00:25:40;;;;;;;;;;;;;;;;;;1047324;28;4267;-52
2022/12/31 00:26:12;;;;;;;;;;;;;;;;;;1048968;28;2692;-52
2022/12/31 00:26:43;;;;;;;;;;;;;;;;;;1045853;28;4233;-51
2022/12/31 00:27:13;;;;;;;;;;;;;;;;;;1048411;28;2748;-56
2022/12/31 00:27:43;;;;;;;;;;;;;;;;;;1046076;28;4136;-54
2022/12/31 00:28:13;;;;;;;;;;;;;;;;;;1046525;28;2657;-54
2022/12/31 00:28:44;;;;;;;;;;;;;;;;;;1047324;28;4224;-53
2022/12/31 00:29:14;;;;;;;;;;;;;;;;;;1048910;28;2792;-52
2022/12/31 00:29:44;;;;;;;;;;;;;;;;;;1042825;28;3883;-52
2022/12/31 00:30:15;;;;;;;;;;;;;;;;;;1044001;28;2826;-50
2022/12/31 00:30:45;;;;;;;;;;;;;;;;;;1045836;28;4099;-57
2022/12/31 00:31:23;;;;;;;;;;;;;;;;;;1044498;28;2206;-54
2022/12/31 00:31:53;;;;;;;;;;;;;;;;;;1047656;28;4082;-54
2022/12/31 00:32:23;;;;;;;;;;;;;;;;;;1046678;28;2184;-54
2022/12/31 00:32:53;;;;;;;;;;;;;;;;;;1047641;28;4339;-53
2022/12/31 00:33:24;;;;;;;;;;;;;;;;;;1046617;28;2657;-56
2022/12/31 00:33:54;;;;;;;;;;;;;;;;;;1046678;28;3959;-53
2022/12/31 00:34:25;;;;;;;;;;;;;;;;;;1043298;28;2945;-55
2022/12/31 00:34:55;;;;;;;;;;;;;;;;;;1045489;28;3949;-53
2022/12/31 00:35:25;;;;;;;;;;;;;;;;;;1047633;28;1625;-51
2022/12/31 00:36:02;;;;;;;;;;;;;;;;;;1046183;28;3969;-55
2022/12/31 00:36:34;;;;;;;;;;;;;;;;;;1047916;28;2890;-56
2022/12/31 00:37:04;;;;;;;;;;;;;;;;;;1051211;28;4063;-52
2022/12/31 00:37:34;;;;;;;;;;;;;;;;;;1050178;28;2962;-51
2022/12/31 00:38:05;;;;;;;;;;;;;;;;;;1049330;28;4044;-55
2022/12/31 00:38:35;;;;;;;;;;;;;;;;;;1049794;28;2818;-55
2022/12/31 00:39:07;;;;;;;;;;;;;;;;;;1048050;28;3881;-52
2022/12/31 00:39:37;;;;;;;;;;;;;;;;;;1047065;28;1813;-54
2022/12/31 00:40:08;;;;;;;;;;;;;;;;;;1047274;28;4176;-54
2022/12/31 00:40:38;;;;;;;;;;;;;;;;;;1048554;28;1607;-52
2022/12/31 00:41:08;;;;;;;;;;;;;;;;;;1047110;28;3827;-52
2022/12/31 00:41:39;;;;;;;;;;;;;;;;;;1049040;28;3042;-53
2022/12/31 00:42:09;;;;;;;;;;;;;;;;;;1048874;28;4073;-53
2022/12/31 00:42:39;;;;;;;;;;;;;;;;;;1050914;28;2819;-51
2022/12/31 00:43:10;;;;;;;;;;;;;;;;;;1048352;28;3842;-53
2022/12/31 00:43:40;;;;;;;;;;;;;;;;;;1047640;28;2164;-53
2022/12/31 00:44:11;;;;;;;;;;;;;;;;;;1047673;28;3732;-52
2022/12/31 00:44:41;;;;;;;;;;;;;;;;;;1047201;28;3786;-51
2022/12/31 00:45:11;;;;;;;;;;;;;;;;;;1046623;28;2961;-52
2022/12/31 00:45:42;;;;;;;;;;;;;;;;;;1049562;28;3966;-54
2022/12/31 00:46:13;;;;;;;;;;;;;;;;;;1046752;28;2803;-52
2022/12/31 00:46:44;;;;;;;;;;;;;;;;;;1048052;28;4256;-54
2022/12/31 00:47:14;;;;;;;;;;;;;;;;;;1047936;28;2681;-51
2022/12/31 00:47:44;;;;;;;;;;;;;;;;;;1049663;28;4015;-55
2022/12/31 00:48:14;;;;;;;;;;;;;;;;;;1047636;28;2772;-54
2022/12/31 00:48:45;;;;;;;;;;;;;;;;;;1050701;28;3939;-50
2022/12/31 00:49:15;;;;;;;;;;;;;;;;;;1047114;28;1790;-51
2022/12/31 00:49:45;;;;;;;;;;;;;;;;;;1048723;28;3798;-52
2022/12/31 00:50:15;;;;;;;;;;;;;;;;;;1048917;28;2065;-52
2022/12/31 00:50:46;;;;;;;;;;;;;;;;;;1046983;28;4365;-55
2022/12/31 00:51:17;;;;;;;;;;;;;;;;;;1046979;28;2446;-56
2022/12/31 00:51:48;;;;;;;;;;;;;;;;;;1048812;28;3929;-54
2022/12/31 00:52:18;;;;;;;;;;;;;;;;;;1047071;28;1943;-52
2022/12/31 00:52:49;;;;;;;;;;;;;;;;;;1047247;28;4044;-55
2022/12/31 00:53:19;;;;;;;;;;;;;;;;;;1048764;28;2806;-56
2022/12/31 00:53:49;;;;;;;;;;;;;;;;;;1047765;28;3902;-56
2022/12/31 00:54:20;;;;;;;;;;;;;;;;;;1047097;28;1682;-55
2022/12/31 00:54:50;;;;;;;;;;;;;;;;;;1048168;28;4066;-56
2022/12/31 00:55:20;;;;;;;;;;;;;;;;;;1049488;28;1794;-54
2022/12/31 00:55:50;;;;;;;;;;;;;;;;;;1049794;28;4095;-54
2022/12/31 00:56:22;;;;;;;;;;;;;;;;;;1049638;28;2482;-55
2022/12/31 00:56:52;;;;;;;;;;;;;;;;;;1050021;28;4021;-49
2022/12/31 00:57:22;;;;;;;;;;;;;;;;;;1046037;28;2073;-55
2022/12/31 00:57:53;;;;;;;;;;;;;;;;;;1046594;28;4048;-53
2022/12/31 00:58:23;;;;;;;;;;;;;;;;;;1044600;28;3137;-53
2022/12/31 00:58:53;;;;;;;;;;;;;;;;;;1045831;28;3900;-56
2022/12/31 00:59:24;;;;;;;;;;;;;;;;;;1046863;28;1602;-54
2022/12/31 00:59:54;;;;;;;;;;;;;;;;;;1047772;28;4227;-51
2022/12/31 01:00:24;;;;;;;;;;;;;;;;;;1046943;28;3118;-56
2022/12/31 01:00:55;;;;;;;;;;;;;;;;;;1047656;28;4508;-55
2022/12/31 01:01:26;;;;;;;;;;;;;;;;;;1047187;28;1616;-52
2022/12/31 01:01:57;;;;;;;;;;;;;;;;;;1045979;28;3942;-51
2022/12/31 01:02:27;;;;;;;;;;;;;;;;;;1048210;28;2223;-55
2022/12/31 01:02:57;;;;;;;;;;;;;;;;;;1049738;28;3778;-53
2022/12/31 01:03:27;;;;;;;;;;;;;;;;;;1048843;28;2700;-53
2022/12/31 01:04:06;;;;;;;;;;;;;;;;;;1049724;28;3917;-54
2022/12/31 01:04:36;;;;;;;;;;;;;;;;;;1048690;28;2815;-51
2022/12/31 01:05:07;;;;;;;;;;;;;;;;;;1047931;28;3767;-53
2022/12/31 01:05:37;;;;;;;;;;;;;;;;;;1049245;28;2139;-52
2022/12/31 01:06:07;;;;;;;;;;;;;;;;;;1048825;28;4038;-54
2022/12/31 01:06:38;;;;;;;;;;;;;;;;;;1046479;28;3313;-54
2022/12/31 01:07:08;;;;;;;;;;;;;;;;;;1048071;28;3863;-54
2022/12/31 01:07:38;;;;;;;;;;;;;;;;;;1049040;28;2334;-52
2022/12/31 01:08:09;;;;;;;;;;;;;;;;;;1047134;28;3751;-53
2022/12/31 01:08:39;;;;;;;;;;;;;;;;;;1047496;28;2803;-53
2022/12/31 01:09:11;;;;;;;;;;;;;;;;;;1048379;28;3657;-56
2022/12/31 01:09:41;;;;;;;;;;;;;;;;;;1046212;28;4078;-52
2022/12/31 01:10:11;;;;;;;;;;;;;;;;;;1048815;28;2150;-54
2022/12/31 01:11:35;;;;;;;;;;;;;;;;;;1047099;28;2276;-57
2022/12/31 01:12:05;;;;;;;;;;;;;;;;;;1045671;28;4360;-54
2022/12/31 01:12:35;;;;;;;;;;;;;;;;;;1045530;28;2588;-55
2022/12/31 01:13:12;;;;;;;;;;;;;;;;;;1045833;28;3863;-53
2022/12/31 01:13:43;;;;;;;;;;;;;;;;;;1044459;28;4459;-52
2022/12/31 01:14:15;;;;;;;;;;;;;;;;;;1046095;28;1648;-50
2022/12/31 01:14:45;;;;;;;;;;;;;;;;;;1041516;28;4232;-53
2022/12/31 01:15:16;;;;;;;;;;;;;;;;;;1045549;28;3180;-53
2022/12/31 01:15:46;;;;;;;;;;;;;;;;;;1042540;28;4772;-54
2022/12/31 01:16:17;;;;;;;;;;;;;;;;;;1045041;28;2522;-54
2022/12/31 01:16:51;;;;;;;;;;;;;;;;;;1042768;28;5566;-54
2022/12/31 01:17:22;;;;;;;;;;;;;;;;;;1045439;28;2079;-50
2022/12/31 01:17:52;;;;;;;;;;;;;;;;;;1043496;28;4055;-57
2022/12/31 01:18:22;;;;;;;;;;;;;;;;;;1043098;28;2587;-55
2022/12/31 01:18:53;;;;;;;;;;;;;;;;;;1044445;28;3874;-56
2022/12/31 01:19:25;;;;;;;;;;;;;;;;;;1043289;28;2828;-56
2022/12/31 01:19:55;;;;;;;;;;;;;;;;;;1042597;28;3780;-53
2022/12/31 01:20:26;;;;;;;;;;;;;;;;;;1043732;28;2524;-54
2022/12/31 01:20:59;;;;;;;;;;;;;;;;;;1043150;28;4108;-54
2022/12/31 01:21:30;;;;;;;;;;;;;;;;;;1044646;28;2863;-53
2022/12/31 01:22:00;;;;;;;;;;;;;;;;;;1042941;28;4233;-53
2022/12/31 01:22:31;;;;;;;;;;;;;;;;;;1046018;28;2105;-51
2022/12/31 01:23:01;;;;;;;;;;;;;;;;;;1045754;28;3719;-55
2022/12/31 01:23:31;;;;;;;;;;;;;;;;;;1046529;28;2037;-53
2022/12/31 01:24:02;;;;;;;;;;;;;;;;;;1045736;28;3908;-50
2022/12/31 01:24:32;;;;;;;;;;;;;;;;;;1045777;28;2454;-54
2022/12/31 01:25:03;;;;;;;;;;;;;;;;;;1043969;28;4012;-56
2022/12/31 01:25:33;;;;;;;;;;;;;;;;;;1044752;28;2771;-55
2022/12/31 01:26:05;;;;;;;;;;;;;;;;;;1045106;28;3990;-52
2022/12/31 01:26:36;;;;;;;;;;;;;;;;;;1043310;28;2583;-55
2022/12/31 01:27:06;;;;;;;;;;;;;;;;;;1044341;28;3850;-54
2022/12/31 01:27:36;;;;;;;;;;;;;;;;;;1042402;28;1624;-51
2022/12/31 01:28:07;;;;;;;;;;;;;;;;;;1042817;28;3876;-53
2022/12/31 01:28:37;;;;;;;;;;;;;;;;;;1042934;28;2895;-53
2022/12/31 01:29:08;;;;;;;;;;;;;;;;;;1046071;28;3725;-56
2022/12/31 01:29:38;;;;;;;;;;;;;;;;;;1043454;28;2873;-53
2022/12/31 01:30:09;;;;;;;;;;;;;;;;;;1045983;28;3895;-54
2022/12/31 01:30:39;;;;;;;;;;;;;;;;;;1044233;28;2842;-54
2022/12/31 01:31:11;;;;;;;;;;;;;;;;;;1044124;28;3963;-56
2022/12/31 01:31:41;;;;;;;;;;;;;;;;;;1042856;28;4407;-54
2022/12/31 01:32:12;;;;;;;;;;;;;;;;;;1045227;28;1886;-57
2022/12/31 01:32:42;;;;;;;;;;;;;;;;;;1045630;28;4238;-56
2022/12/31 01:33:12;;;;;;;;;;;;;;;;;;1045592;28;2733;-52
2022/12/31 01:33:43;;;;;;;;;;;;;;;;;;1041468;28;4623;-55
2022/12/31 01:34:13;;;;;;;;;;;;;;;;;;1043075;28;3007;-54
2022/12/31 01:34:43;;;;;;;;;;;;;;;;;;1042125;28;4613;-54
2022/12/31 01:35:14;;;;;;;;;;;;;;;;;;1042413;28;2785;-54
2022/12/31 01:35:44;;;;;;;;;;;;;;;;;;1042362;28;4400;-53
2022/12/31 01:36:16;;;;;;;;;;;;;;;;;;1043670;28;2465;-53
2022/12/31 01:36:46;;;;;;;;;;;;;;;;;;1041966;28;4200;-56
2022/12/31 01:37:16;;;;;;;;;;;;;;;;;;1043857;28;2879;-57
2022/12/31 01:37:46;;;;;;;;;;;;;;;;;;1042377;28;4190;-54
2022/12/31 01:38:17;;;;;;;;;;;;;;;;;;1045733;28;1811;-54
2022/12/31 01:38:47;;;;;;;;;;;;;;;;;;1046187;28;3789;-55
2022/12/31 01:39:17;;;;;;;;;;;;;;;;;;1043756;28;2831;-49
2022/12/31 01:39:47;;;;;;;;;;;;;;;;;;1045595;28;3784;-55
2022/12/31 01:40:25;;;;;;;;;;;;;;;;;;1043492;28;2840;-54
2022/12/31 01:40:55;;;;;;;;;;;;;;;;;;1042984;28;3762;-54
2022/12/31 01:41:27;;;;;;;;;;;;;;;;;;1045321;28;2714;-55
2022/12/31 01:41:57;;;;;;;;;;;;;;;;;;1046607;28;3786;-55
2022/12/31 01:42:27;;;;;;;;;;;;;;;;;;1042177;28;2659;-54
2022/12/31 01:42:58;;;;;;;;;;;;;;;;;;1042992;28;4054;-53
2022/12/31 01:43:48;;;;;;;;;;;;;;;;;;1043066;28;3171;-55
2022/12/31 01:44:24;;;;;;;;;;;;;;;;;;1043066;28;4073;-57
2022/12/31 01:44:54;;;;;;;;;;;;;;;;;;1044185;28;4418;-56
2022/12/31 01:45:25;;;;;;;;;;;;;;;;;;1042398;28;2532;-55
2022/12/31 01:45:55;;;;;;;;;;;;;;;;;;1041765;28;4040;-54
2022/12/31 01:46:27;;;;;;;;;;;;;;;;;;1044123;28;2663;-54
2022/12/31 01:47:00;;;;;;;;;;;;;;;;;;1043504;28;3973;-54
2022/12/31 01:47:36;;;;;;;;;;;;;;;;;;1045746;28;2083;-56
2022/12/31 01:48:09;;;;;;;;;;;;;;;;;;1043616;28;3833;-54
2022/12/31 01:48:40;;;;;;;;;;;;;;;;;;1042610;28;2828;-54
2022/12/31 01:49:35;;;;;;;;;;;;;;;;;;1044401;28;3744;-55
2022/12/31 01:50:08;;;;;;;;;;;;;;;;;;1041910;28;3772;-56
2022/12/31 01:50:39;;;;;;;;;;;;;;;;;;1043382;28;1289;-53
2022/12/31 01:51:10;;;;;;;;;;;;;;;;;;1045002;28;4123;-51
2022/12/31 01:51:41;;;;;;;;;;;;;;;;;;1044456;28;2825;-55
2022/12/31 01:52:13;;;;;;;;;;;;;;;;;;1043598;28;3638;-56
2022/12/31 01:52:45;;;;;;;;;;;;;;;;;;1048127;28;3799;-56
2022/12/31 01:53:16;;;;;;;;;;;;;;;;;;1047471;28;2946;-54
2022/12/31 01:53:47;;;;;;;;;;;;;;;;;;1047658;28;4329;-52
2022/12/31 01:54:18;;;;;;;;;;;;;;;;;;1047821;28;2406;-55
2022/12/31 01:54:51;;;;;;;;;;;;;;;;;;1044686;28;3777;-54
2022/12/31 01:55:32;;;;;;;;;;;;;;;;;;1043815;28;2758;-54
2022/12/31 01:56:03;;;;;;;;;;;;;;;;;;1043710;28;3932;-57
2022/12/31 01:56:34;;;;;;;;;;;;;;;;;;1045041;28;2059;-55
2022/12/31 01:57:06;;;;;;;;;;;;;;;;;;1044401;28;3837;-54
2022/12/31 01:57:37;;;;;;;;;;;;;;;;;;1042187;28;2664;-53
2022/12/31 01:58:09;;;;;;;;;;;;;;;;;;1041830;28;3768;-54
2022/12/31 01:58:42;;;;;;;;;;;;;;;;;;1042672;28;2729;-51
2022/12/31 01:59:13;;;;;;;;;;;;;;;;;;1042601;28;4038;-54
2022/12/31 01:59:43;;;;;;;;;;;;;;;;;;1043611;28;3947;-54
2022/12/31 02:00:14;;;;;;;;;;;;;;;;;;1043774;28;2864;-52
2022/12/31 02:00:45;;;;;;;;;;;;;;;;;;1044081;28;4085;-52
2022/12/31 02:01:21;;;;;;;;;;;;;;;;;;1042364;28;2819;-54
2022/12/31 02:01:51;;;;;;;;;;;;;;;;;;1041485;28;3774;-53
2022/12/31 02:02:22;;;;;;;;;;;;;;;;;;1042305;28;1880;-55
2022/12/31 02:02:52;;;;;;;;;;;;;;;;;;1043847;28;3878;-54
2022/12/31 02:03:22;;;;;;;;;;;;;;;;;;1044055;28;2936;-52
2022/12/31 02:03:54;;;;;;;;;;;;;;;;;;1045885;28;4029;-57
2022/12/31 02:04:25;;;;;;;;;;;;;;;;;;1043053;28;2072;-50
2022/12/31 02:04:56;;;;;;;;;;;;;;;;;;1043736;28;4052;-56
2022/12/31 02:05:30;;;;;;;;;;;;;;;;;;1045826;28;1698;-55
2022/12/31 02:06:09;;;;;;;;;;;;;;;;;;1044063;28;3950;-57
2022/12/31 02:06:48;;;;;;;;;;;;;;;;;;1043873;28;2804;-53
2022/12/31 02:07:19;;;;;;;;;;;;;;;;;;1039670;28;3969;-58
2022/12/31 02:07:50;;;;;;;;;;;;;;;;;;1038470;28;4032;-52
2022/12/31 02:08:20;;;;;;;;;;;;;;;;;;1041823;28;2803;-56
2022/12/31 02:08:51;;;;;;;;;;;;;;;;;;1043342;28;4594;-58
2022/12/31 02:09:21;;;;;;;;;;;;;;;;;;1046448;28;1955;-54
2022/12/31 02:09:52;;;;;;;;;;;;;;;;;;1043852;28;3888;-53
2022/12/31 02:10:22;;;;;;;;;;;;;;;;;;1043593;28;2929;-55
2022/12/31 02:10:52;;;;;;;;;;;;;;;;;;1043965;28;4144;-52
2022/12/31 02:11:28;;;;;;;;;;;;;;;;;;1043991;28;2559;-53
2022/12/31 02:11:58;;;;;;;;;;;;;;;;;;1041970;28;4915;-54
2022/12/31 02:12:28;;;;;;;;;;;;;;;;;;1044269;28;1885;-56
2022/12/31 02:12:59;;;;;;;;;;;;;;;;;;1041970;28;3873;-51
2022/12/31 02:13:35;;;;;;;;;;;;;;;;;;1045477;28;2970;-55
2022/12/31 02:14:45;;;;;;;;;;;;;;;;;;1046744;28;3979;-56
2022/12/31 02:15:16;;;;;;;;;;;;;;;;;;1037017;28;3947;-50
2022/12/31 02:15:50;;;;;;;;;;;;;;;;;;1031090;28;3973;-54
2022/12/31 02:16:28;;;;;;;;;;;;;;;;;;1037807;28;2903;-51
2022/12/31 02:17:10;;;;;;;;;;;;;;;;;;1045687;28;3797;-53
2022/12/31 02:17:47;;;;;;;;;;;;;;;;;;1046634;28;4058;-53
2022/12/31 02:18:20;;;;;;;;;;;;;;;;;;1046741;28;2804;-49
2022/12/31 02:18:51;;;;;;;;;;;;;;;;;;1045567;28;4381;-57
2022/12/31 02:19:49;;;;;;;;;;;;;;;;;;1043589;28;1843;-53
2022/12/31 02:20:36;;;;;;;;;;;;;;;;;;1044678;28;3997;-56
2022/12/31 02:21:27;;;;;;;;;;;;;;;;;;1046038;28;3923;-51
2022/12/31 02:22:06;;;;;;;;;;;;;;;;;;1044591;28;3906;-56
2022/12/31 02:22:50;;;;;;;;;;;;;;;;;;1045068;28;2030;-52
2022/12/31 02:23:43;;;;;;;;;;;;;;;;;;1043498;28;3733;-55
2022/12/31 02:24:16;;;;;;;;;;;;;;;;;;1044940;28;3937;-54
2022/12/31 02:24:55;;;;;;;;;;;;;;;;;;1046551;28;3791;-56
2022/12/31 02:25:25;;;;;;;;;;;;;;;;;;1049498;28;2538;-50
2022/12/31 02:26:03;;;;;;;;;;;;;;;;;;1047491;28;3812;-55
2022/12/31 02:27:00;;;;;;;;;;;;;;;;;;1043280;28;2784;-56
2022/12/31 02:27:41;;;;;;;;;;;;;;;;;;1041638;28;4005;-51
2022/12/31 02:28:31;;;;;;;;;;;;;;;;;;1044007;28;3672;-54
2022/12/31 02:29:19;;;;;;;;;;;;;;;;;;1043341;28;3807;-53
2022/12/31 02:29:55;;;;;;;;;;;;;;;;;;1041996;28;4021;-53
2022/12/31 02:30:28;;;;;;;;;;;;;;;;;;1042267;28;2791;-56
2022/12/31 02:31:22;;;;;;;;;;;;;;;;;;1049247;28;4391;-56
2022/12/31 02:32:11;;;;;;;;;;;;;;;;;;1040926;28;4042;-54
2022/12/31 02:32:55;;;;;;;;;;;;;;;;;;1043566;28;3911;-52
2022/12/31 02:33:35;;;;;;;;;;;;;;;;;;1048459;28;2133;-56
2022/12/31 02:34:08;;;;;;;;;;;;;;;;;;1047378;28;3768;-54
2022/12/31 02:34:52;;;;;;;;;;;;;;;;;;1047108;28;1764;-54
2022/12/31 02:35:25;;;;;;;;;;;;;;;;;;1050108;28;3983;-52
2022/12/31 02:35:58;;;;;;;;;;;;;;;;;;1047320;28;4240;-53
2022/12/31 02:36:31;;;;;;;;;;;;;;;;;;1047446;28;3541;-57
2022/12/31 02:37:03;;;;;;;;;;;;;;;;;;1046889;28;3759;-54
2022/12/31 02:37:34;;;;;;;;;;;;;;;;;;1046989;28;2844;-54
2022/12/31 02:38:07;;;;;;;;;;;;;;;;;;1048117;28;4352;-56
2022/12/31 02:38:40;;;;;;;;;;;;;;;;;;1047621;28;2793;-55
2022/12/31 02:39:11;;;;;;;;;;;;;;;;;;1045530;28;3950;-54
2022/12/31 02:39:42;;;;;;;;;;;;;;;;;;1043334;28;3818;-53
2022/12/31 02:40:15;;;;;;;;;;;;;;;;;;1043440;28;2595;-52
2022/12/31 02:40:47;;;;;;;;;;;;;;;;;;1044364;28;3957;-53
2022/12/31 02:42:08;;;;;;;;;;;;;;;;;;1047573;28;3790;-55
2022/12/31 02:42:39;;;;;;;;;;;;;;;;;;1043558;28;2727;-55
2022/12/31 02:43:09;;;;;;;;;;;;;;;;;;1045285;28;4032;-51
2022/12/31 02:43:45;;;;;;;;;;;;;;;;;;1044051;28;2624;-55
2022/12/31 02:44:25;;;;;;;;;;;;;;;;;;1046004;28;3906;-56
2022/12/31 02:44:55;;;;;;;;;;;;;;;;;;1049094;28;4405;-56
2022/12/31 02:45:35;;;;;;;;;;;;;;;;;;1047617;28;2596;-55
2022/12/31 02:46:29;;;;;;;;;;;;;;;;;;1045778;28;4039;-48
2022/12/31 02:47:15;;;;;;;;;;;;;;;;;;1043711;28;4259;-56
2022/12/31 02:48:01;;;;;;;;;;;;;;;;;;1050264;28;4013;-54
2022/12/31 02:48:37;;;;;;;;;;;;;;;;;;1050677;28;1842;-50
2022/12/31 02:49:22;;;;;;;;;;;;;;;;;;1045986;28;3854;-53
2022/12/31 02:50:04;;;;;;;;;;;;;;;;;;1047567;28;4395;-56
2022/12/31 02:50:54;;;;;;;;;;;;;;;;;;1047620;28;2672;-54
2022/12/31 02:51:53;;;;;;;;;;;;;;;;;;1048846;28;4092;-55
2022/12/31 02:52:26;;;;;;;;;;;;;;;;;;1038763;28;3860;-55
2022/12/31 02:53:08;;;;;;;;;;;;;;;;;;1038828;28;3908;-50
2022/12/31 02:53:57;;;;;;;;;;;;;;;;;;1038451;28;2788;-54
2022/12/31 02:54:46;;;;;;;;;;;;;;;;;;1044555;28;3847;-54
2022/12/31 02:55:25;;;;;;;;;;;;;;;;;;1046437;28;4043;-56
2022/12/31 02:56:15;;;;;;;;;;;;;;;;;;1046794;28;4060;-52
2022/12/31 02:56:50;;;;;;;;;;;;;;;;;;1049186;28;4086;-49
2022/12/31 02:57:38;;;;;;;;;;;;;;;;;;1049774;28;1685;-55
2022/12/31 02:58:11;;;;;;;;;;;;;;;;;;1047862;28;4083;-58
2022/12/31 03:02:32;;;;;;;;;;;;;;;;;;1049059;28;2045;-52
2022/12/31 03:03:04;;;;;;;;;;;;;;;;;;1046923;28;3940;-54
2022/12/31 03:03:35;;;;;;;;;;;;;;;;;;1046501;28;2722;-55
2022/12/31 03:05:09;;;;;;;;;;;;;;;;;;1036948;28;3962;-53
2022/12/31 03:05:41;;;;;;;;;;;;;;;;;;1036600;28;2933;-52
2022/12/31 03:06:12;;;;;;;;;;;;;;;;;;1042281;28;3897;-53
2022/12/31 03:06:42;;;;;;;;;;;;;;;;;;1046644;28;4417;-54
2022/12/31 03:07:16;;;;;;;;;;;;;;;;;;1045448;28;2974;-51
2022/12/31 03:07:46;;;;;;;;;;;;;;;;;;1049148;28;4163;-53
2022/12/31 03:08:21;;;;;;;;;;;;;;;;;;1048360;28;2282;-53
2022/12/31 03:09:40;;;;;;;;;;;;;;;;;;1047411;28;2787;-58
2022/12/31 03:10:10;;;;;;;;;;;;;;;;;;1046788;28;3687;-54
2022/12/31 03:10:41;;;;;;;;;;;;;;;;;;1047157;28;3874;-54
2022/12/31 03:12:44;;;;;;;;;;;;;;;;;;1048198;28;3059;-54
2022/12/31 03:12:52;;;;;;;;;;;;;;;;;;1047187;28;4045;-53
2022/12/31 03:13:29;;;;;;;;;;;;;;;;;;1045894;28;2880;-52
2022/12/31 03:14:06;;;;;;;;;;;;;;;;;;1047916;28;4003;-53
2022/12/31 03:14:43;;;;;;;;;;;;;;;;;;1048431;28;3805;-54
2022/12/31 03:15:20;;;;;;;;;;;;;;;;;;1048490;28;2784;-54
2022/12/31 03:15:50;;;;;;;;;;;;;;;;;;1047845;28;4411;-54
2022/12/31 03:16:21;;;;;;;;;;;;;;;;;;1049049;28;2093;-50
2022/12/31 03:16:51;;;;;;;;;;;;;;;;;;1047928;28;4218;-52
2022/12/31 03:17:21;;;;;;;;;;;;;;;;;;1046977;28;3144;-51
2022/12/31 03:17:52;;;;;;;;;;;;;;;;;;1048289;28;4390;-53
2022/12/31 03:22:26;;;;;;;;;;;;;;;;;;1050063;28;2448;-57
2022/12/31 03:22:39;;;;;;;;;;;;;;;;;;1050505;28;2218;-54
2022/12/31 03:23:11;;;;;;;;;;;;;;;;;;1047982;28;3916;-54
2022/12/31 03:23:48;;;;;;;;;;;;;;;;;;1045089;28;4108;-54
2022/12/31 03:26:01;;;;;;;;;;;;;;;;;;1046686;28;4105;-52
2022/12/31 03:26:31;;;;;;;;;;;;;;;;;;1049913;28;1699;-56
2022/12/31 03:27:02;;;;;;;;;;;;;;;;;;1045526;28;3959;-54
2022/12/31 03:27:32;;;;;;;;;;;;;;;;;;1049400;28;2758;-55
2022/12/31 03:28:06;;;;;;;;;;;;;;;;;;1049530;28;4030;-53
2022/12/31 03:28:41;;;;;;;;;;;;;;;;;;1047971;28;3052;-55
2022/12/31 03:29:11;;;;;;;;;;;;;;;;;;1047286;28;3983;-54
2022/12/31 03:29:41;;;;;;;;;;;;;;;;;;1047321;28;4385;-54
2022/12/31 03:30:13;;;;;;;;;;;;;;;;;;1047239;28;2830;-57
2022/12/31 03:30:45;;;;;;;;;;;;;;;;;;1048596;28;3905;-54
2022/12/31 03:31:15;;;;;;;;;;;;;;;;;;1048933;28;1880;-53
2022/12/31 03:31:45;;;;;;;;;;;;;;;;;;1046924;28;4463;-55
2022/12/31 03:32:15;;;;;;;;;;;;;;;;;;1047428;28;3046;-51
2022/12/31 03:32:46;;;;;;;;;;;;;;;;;;1047777;28;3964;-53
2022/12/31 03:33:16;;;;;;;;;;;;;;;;;;1047162;28;2444;-53
2022/12/31 03:33:47;;;;;;;;;;;;;;;;;;1047962;28;3970;-51
2022/12/31 03:34:17;;;;;;;;;;;;;;;;;;1047326;28;2800;-51
2022/12/31 03:34:47;;;;;;;;;;;;;;;;;;1048032;28;3862;-54
2022/12/31 03:35:19;;;;;;;;;;;;;;;;;;1050355;28;3116;-55
2022/12/31 03:35:50;;;;;;;;;;;;;;;;;;1044682;28;4293;-51
2022/12/31 03:36:20;;;;;;;;;;;;;;;;;;1043322;28;2537;-53
2022/12/31 03:36:50;;;;;;;;;;;;;;;;;;1044410;28;3983;-55
2022/12/31 03:37:20;;;;;;;;;;;;;;;;;;1044842;28;2683;-53
2022/12/31 03:37:51;;;;;;;;;;;;;;;;;;1050309;28;4417;-54
2022/12/31 03:38:22;;;;;;;;;;;;;;;;;;1048281;28;2768;-56
2022/12/31 03:38:52;;;;;;;;;;;;;;;;;;1045163;28;3890;-51
2022/12/31 03:39:22;;;;;;;;;;;;;;;;;;1045904;28;2883;-56
2022/12/31 03:39:52;;;;;;;;;;;;;;;;;;1044549;28;4034;-51
2022/12/31 03:40:24;;;;;;;;;;;;;;;;;;1045268;28;3074;-56
2022/12/31 03:40:54;;;;;;;;;;;;;;;;;;1046078;28;3891;-54
2022/12/31 03:41:25;;;;;;;;;;;;;;;;;;1049628;28;2940;-53
2022/12/31 03:41:55;;;;;;;;;;;;;;;;;;1050148;28;3790;-52
2022/12/31 03:42:25;;;;;;;;;;;;;;;;;;1047828;28;2812;-51
2022/12/31 03:42:55;;;;;;;;;;;;;;;;;;1048856;28;4236;-54
2022/12/31 03:43:26;;;;;;;;;;;;;;;;;;1048874;28;2677;-51
2022/12/31 03:43:56;;;;;;;;;;;;;;;;;;1049816;28;4369;-55
2022/12/31 03:44:33;;;;;;;;;;;;;;;;;;1047369;28;2168;-52
2022/12/31 03:45:03;;;;;;;;;;;;;;;;;;1049419;28;3957;-55
2022/12/31 03:45:34;;;;;;;;;;;;;;;;;;1049618;28;2732;-55
2022/12/31 03:46:04;;;;;;;;;;;;;;;;;;1046816;28;3823;-50
2022/12/31 03:46:34;;;;;;;;;;;;;;;;;;1048469;28;2670;-55
2022/12/31 03:47:04;;;;;;;;;;;;;;;;;;1048937;28;4253;-55
2022/12/31 03:47:35;;;;;;;;;;;;;;;;;;1050093;28;2672;-53
2022/12/31 03:48:06;;;;;;;;;;;;;;;;;;1049199;28;4001;-51
2022/12/31 03:48:36;;;;;;;;;;;;;;;;;;1047263;28;2080;-56
2022/12/31 03:49:06;;;;;;;;;;;;;;;;;;1049334;28;4017;-54
2022/12/31 03:49:36;;;;;;;;;;;;;;;;;;1043763;28;2699;-53
2022/12/31 03:50:08;;;;;;;;;;;;;;;;;;1043898;28;3955;-53
2022/12/31 03:50:38;;;;;;;;;;;;;;;;;;1044080;28;2723;-55
2022/12/31 03:51:08;;;;;;;;;;;;;;;;;;1044141;28;4030;-52
2022/12/31 03:51:38;;;;;;;;;;;;;;;;;;1049730;28;1680;-55
2022/12/31 03:52:09;;;;;;;;;;;;;;;;;;1043645;28;4142;-57
2022/12/31 03:52:39;;;;;;;;;;;;;;;;;;1044894;28;3021;-54
2022/12/31 03:53:09;;;;;;;;;;;;;;;;;;1045297;28;4026;-51
2022/12/31 03:53:40;;;;;;;;;;;;;;;;;;1045107;28;1719;-52
2022/12/31 03:54:10;;;;;;;;;;;;;;;;;;1047471;28;3699;-52
2022/12/31 03:54:40;;;;;;;;;;;;;;;;;;1049134;28;2239;-53
2022/12/31 03:55:11;;;;;;;;;;;;;;;;;;1046575;28;3931;-56
2022/12/31 03:55:41;;;;;;;;;;;;;;;;;;1050062;28;4025;-50
2022/12/31 03:56:11;;;;;;;;;;;;;;;;;;1047581;28;3017;-55
2022/12/31 03:56:41;;;;;;;;;;;;;;;;;;1045053;28;4037;-55
2022/12/31 03:57:12;;;;;;;;;;;;;;;;;;1045291;28;2801;-56
2022/12/31 03:57:42;;;;;;;;;;;;;;;;;;1043469;28;4064;-55
2022/12/31 03:58:12;;;;;;;;;;;;;;;;;;1043019;28;2157;-55
2022/12/31 03:58:42;;;;;;;;;;;;;;;;;;1048763;28;4519;-51
2022/12/31 03:59:13;;;;;;;;;;;;;;;;;;1047736;28;2893;-52
2022/12/31 03:59:43;;;;;;;;;;;;;;;;;;1050567;28;4046;-54
2022/12/31 04:00:14;;;;;;;;;;;;;;;;;;1048710;28;2584;-54
2022/12/31 04:00:45;;;;;;;;;;;;;;;;;;1049542;28;4203;-54
2022/12/31 04:01:15;;;;;;;;;;;;;;;;;;1047986;28;2718;-53